メインページ
METAR-TAF:

METAR-TAF

空港 :

Mackenzie, ブリティッシュコロンビア州, カナダ

緯度: 55-18N, 経度: 123-08W, 海抜: 695m

現時点の気象観測

当レポートは1時間0分前の10:00(UTC)に作成
南/南東の風 2kt
気温 12°C
湿度 88%
気圧 1013 hPa
視程: 14.5km
晴天

METAR: CYZY 051000Z AUTO 16002KT 9SM CLR 12/10 A2992 RMK SLP141 DENSITY ALT 2300FT

時間: 04:00 (11:00 UTC)

予報

当レポートは4時間22分前の06:38(UTC)に作成
予報は05日の 07時(UTC)から 05日の 09時(UTC)まで有効
変向風 3kt
視程: 10km
高度7000ftの千切れ雲あり

TAF: CYZY 050638Z 0507/0509 VRB03KT P6SM BKN070 RMK FCST BASED ON AUTO OBS. NXT FCST WILL BE ISSUED AT 051445Z

4,000以上の空港の気象観測と天気予報(METAR報とTAF報)

利用可能な観測所は地図上に黄色い丸と赤い丸で示す。

丸の上にカーソルを重ねると観測所名を参照できる。

次にクリックすると気象観測と天気予報を参照できる。

マップの切り替え:黒色「×」印の緑ボタンをクリックして拡大、「-」印の緑ボタンをクリックして縮小、緑色の三角印をクリックして隣りの地図に切り替え


METAR-TAF: